New River, Virginia
Current Conditions -  °F | °C
As of 3:55 PM on Friday 31 Oct 2014 (Local Time) from KPSK Reporting Station
Moderate Rain Moderate Rain  
Wind Chill: 45°   Ceiling: 2400
Heat Index: 48°   Visibility: 7mi
Dew Point: 43°   Wind: 7mph
Humidity: 83%   Direction: 290°WNW
Pressure: 29.83"   Gusts: NA
Location:  37.13°N, 80.59°W
Report Text: KPSK 311955Z AUTO 29006KT 7SM RA SCT020 BKN024 OVC035 09/06 A2983 RMK AO2 T00880060
Loading
Personal Weather Stations






























Interactive Weather Map
Tropical Storm Tracking
New forecast layout! Learn more

10-Day Weather Forecast

Advertisements
Track Severe Weather on mobile